createdAt,value
2023-01-13T00:01:29.206Z,101304.75
2023-01-13T00:03:57.183Z,101309.94
2023-01-13T00:06:26.342Z,101288.69
2023-01-13T00:08:54.154Z,101266.59
2023-01-13T00:11:23.061Z,101250.47
2023-01-13T00:13:50.743Z,101244.00
2023-01-13T00:16:19.815Z,101221.91
2023-01-13T00:18:49.158Z,101286.81
2023-01-13T00:21:20.157Z,101237.56
2023-01-13T00:23:48.651Z,101262.44
2023-01-13T00:26:19.744Z,101268.63
2023-01-13T00:28:48.227Z,101260.44
2023-01-13T00:31:21.465Z,101199.09
2023-01-13T00:33:51.095Z,101187.56
2023-01-13T00:36:21.082Z,101251.13
2023-01-13T00:38:49.057Z,101272.97
2023-01-13T00:41:22.609Z,101255.53
2023-01-13T00:43:50.933Z,101263.72
2023-01-13T00:46:21.421Z,101261.84
2023-01-13T00:48:49.967Z,101273.50
2023-01-13T00:51:20.402Z,101252.22
2023-01-13T00:53:50.944Z,101263.19
2023-01-13T00:56:41.002Z,101246.03
2023-01-13T00:59:13.677Z,101219.09
2023-01-13T01:01:42.213Z,101230.19
2023-01-13T01:04:10.344Z,101201.13
2023-01-13T01:06:38.718Z,101209.28
2023-01-13T01:09:06.535Z,101151.19
2023-01-13T01:11:35.141Z,101253.38
2023-01-13T01:14:04.298Z,101246.81
2023-01-13T01:16:34.429Z,101247.94
2023-01-13T01:19:02.559Z,101164.75
2023-01-13T01:21:30.315Z,101187.69
2023-01-13T01:24:01.474Z,101253.91
2023-01-13T01:26:30.713Z,101145.16
2023-01-13T01:29:02.347Z,101140.56
2023-01-13T01:31:33.258Z,101235.44
2023-01-13T01:34:02.026Z,101235.41
2023-01-13T01:36:35.191Z,101150.63
2023-01-13T01:39:04.483Z,101225.03
2023-01-13T01:41:34.308Z,101258.53
2023-01-13T01:44:26.873Z,101264.78
2023-01-13T01:46:56.636Z,101215.16
2023-01-13T01:49:33.500Z,101238.56
2023-01-13T01:52:07.015Z,101255.22
2023-01-13T01:54:59.977Z,101251.09
2023-01-13T01:57:33.224Z,101257.38
2023-01-13T02:00:02.304Z,101273.66
2023-01-13T02:02:42.274Z,101237.97
2023-01-13T02:05:11.212Z,101258.69
2023-01-13T02:07:41.414Z,101233.63
2023-01-13T02:10:12.982Z,101245.53
2023-01-13T02:12:44.444Z,101224.56
2023-01-13T02:15:15.379Z,101266.06
2023-01-13T02:18:02.017Z,101271.22
2023-01-13T02:20:44.811Z,101264.38
2023-01-13T02:23:46.558Z,101271.72
2023-01-13T02:26:17.155Z,101266.81
2023-01-13T02:29:34.459Z,101263.03
2023-01-13T02:32:15.056Z,101208.94
2023-01-13T02:34:52.317Z,101246.94
2023-01-13T02:37:22.557Z,101261.66
2023-01-13T02:40:38.765Z,101255.69
2023-01-13T02:43:36.512Z,101248.09
2023-01-13T02:46:28.398Z,101257.59
2023-01-13T02:49:01.473Z,101260.03
2023-01-13T02:51:31.809Z,101184.78
2023-01-13T02:54:12.695Z,101257.03
2023-01-13T02:56:44.577Z,101201.63
2023-01-13T02:59:13.327Z,101183.38
2023-01-13T03:01:42.924Z,101208.84
2023-01-13T03:04:15.714Z,101237.72
2023-01-13T03:07:02.398Z,101251.53
2023-01-13T03:09:36.788Z,101244.72
2023-01-13T03:12:43.525Z,101207.91
2023-01-13T03:15:11.216Z,101249.91
2023-01-13T03:18:04.821Z,101249.34
2023-01-13T03:20:47.922Z,101233.53
2023-01-13T03:23:47.960Z,101241.94
2023-01-13T03:26:49.513Z,101213.28
2023-01-13T03:29:32.715Z,101242.81
2023-01-13T03:32:07.313Z,101215.78
2023-01-13T03:34:44.288Z,101255.88
2023-01-13T03:37:14.768Z,101241.16
2023-01-13T03:39:47.986Z,101190.91
2023-01-13T03:42:23.326Z,101215.47
2023-01-13T03:45:14.021Z,101262.94
2023-01-13T03:47:54.239Z,101262.41
2023-01-13T03:50:28.670Z,101264.03
2023-01-13T03:53:02.854Z,101238.63
2023-01-13T03:55:36.590Z,101224.94
2023-01-13T03:58:18.121Z,101262.56
2023-01-13T04:01:17.197Z,101275.34
2023-01-13T04:03:50.936Z,101277.59
2023-01-13T04:06:38.379Z,101283.91
2023-01-13T04:09:24.219Z,101290.09
2023-01-13T04:12:09.414Z,101262.25
2023-01-13T04:14:38.223Z,101288.75
2023-01-13T04:17:06.891Z,101299.69
2023-01-13T04:19:34.736Z,101255.56
2023-01-13T04:22:02.709Z,101225.88
2023-01-13T04:24:30.989Z,101276.59
2023-01-13T04:26:58.756Z,101297.59
2023-01-13T04:29:26.809Z,101247.97
2023-01-13T04:31:54.943Z,101212.72
2023-01-13T04:34:22.654Z,101271.38
2023-01-13T04:36:50.306Z,101267.84
2023-01-13T04:39:18.196Z,101283.44
2023-01-13T04:42:02.731Z,101222.13
2023-01-13T04:44:35.280Z,101249.91
2023-01-13T04:47:03.520Z,101272.59
2023-01-13T04:49:31.614Z,101269.78
2023-01-13T04:51:59.509Z,101285.88
2023-01-13T04:54:27.296Z,101256.88
2023-01-13T04:56:55.087Z,101298.03
2023-01-13T04:59:23.059Z,101296.13
2023-01-13T05:01:50.950Z,101265.59
2023-01-13T05:04:18.970Z,101282.00
2023-01-13T05:06:46.730Z,101290.16
2023-01-13T05:09:16.185Z,101215.72
2023-01-13T05:12:02.524Z,101254.41
2023-01-13T05:14:48.954Z,101256.31
2023-01-13T05:17:23.045Z,101283.97
2023-01-13T05:19:51.341Z,101256.38
2023-01-13T05:22:37.750Z,101277.63
2023-01-13T05:25:24.507Z,101230.72
2023-01-13T05:27:58.034Z,101279.63
2023-01-13T05:30:28.492Z,101235.75
2023-01-13T05:32:57.202Z,101268.22
2023-01-13T05:35:25.282Z,101274.22
2023-01-13T05:37:55.164Z,101269.06
2023-01-13T05:40:41.917Z,101284.53
2023-01-13T05:43:21.333Z,101292.94
2023-01-13T05:46:09.680Z,101301.88
2023-01-13T05:48:39.986Z,101281.72
2023-01-13T05:51:09.996Z,101302.16
2023-01-13T05:53:38.310Z,101290.72
2023-01-13T05:56:07.763Z,101303.81
2023-01-13T05:58:35.836Z,101309.81
2023-01-13T06:01:08.686Z,101250.00
2023-01-13T06:03:37.393Z,101316.06
2023-01-13T06:06:05.577Z,101298.28
2023-01-13T06:08:36.945Z,101335.31
2023-01-13T06:11:06.129Z,101324.16
2023-01-13T06:13:33.920Z,101282.22
2023-01-13T06:16:01.825Z,101311.59
2023-01-13T06:18:29.758Z,101299.84
2023-01-13T06:20:57.690Z,101245.44
2023-01-13T06:23:26.746Z,101259.38
2023-01-13T06:26:12.428Z,101324.81
2023-01-13T06:28:40.237Z,101294.59
2023-01-13T06:31:10.431Z,101337.31
2023-01-13T06:33:44.074Z,101301.34
2023-01-13T06:36:23.277Z,101352.03
2023-01-13T06:38:56.348Z,101339.69
2023-01-13T06:41:43.599Z,101365.81
2023-01-13T06:44:11.678Z,101323.34
2023-01-13T06:46:39.516Z,101340.22
2023-01-13T06:49:07.606Z,101353.31
2023-01-13T06:51:37.581Z,101358.28
2023-01-13T06:54:05.846Z,101273.41
2023-01-13T06:56:33.770Z,101350.41
2023-01-13T06:59:02.606Z,101351.75
2023-01-13T07:01:30.725Z,101327.53
2023-01-13T07:03:58.577Z,101340.56
2023-01-13T07:06:26.416Z,101321.50
2023-01-13T07:08:54.391Z,101358.59
2023-01-13T07:11:22.247Z,101359.13
2023-01-13T07:14:08.555Z,101246.97
2023-01-13T07:16:36.452Z,101359.78
2023-01-13T07:19:04.536Z,101370.13
2023-01-13T07:21:32.252Z,101343.81
2023-01-13T07:24:00.227Z,101384.25
2023-01-13T07:26:28.044Z,101339.78
2023-01-13T07:28:55.959Z,101363.56
2023-01-13T07:31:23.997Z,101366.34
2023-01-13T07:33:51.774Z,101344.44
2023-01-13T07:36:19.605Z,101371.72
2023-01-13T07:38:47.406Z,101365.22
2023-01-13T07:41:34.000Z,101382.66
2023-01-13T07:44:07.344Z,101347.41
2023-01-13T07:46:35.008Z,101392.91
2023-01-13T07:49:03.273Z,101357.16
2023-01-13T07:51:31.220Z,101359.69
2023-01-13T07:53:58.910Z,101385.38
2023-01-13T07:56:26.733Z,101389.50
2023-01-13T07:58:54.569Z,101379.91
2023-01-13T08:01:22.628Z,101356.09
2023-01-13T08:03:50.525Z,101388.56
2023-01-13T08:06:18.276Z,101349.78
2023-01-13T08:08:46.139Z,101387.38
2023-01-13T08:11:14.033Z,101339.31
2023-01-13T08:13:41.881Z,101366.13
2023-01-13T08:16:13.400Z,101403.53
2023-01-13T08:18:43.974Z,101414.19
2023-01-13T08:21:14.026Z,101433.78
2023-01-13T08:23:43.262Z,101410.53
2023-01-13T08:26:17.388Z,101414.19
2023-01-13T08:28:46.006Z,101414.75
2023-01-13T08:31:16.751Z,101412.38
2023-01-13T08:33:44.875Z,101415.09
2023-01-13T08:36:14.026Z,101418.16
2023-01-13T08:38:42.519Z,101426.03
2023-01-13T08:41:13.413Z,101366.28
2023-01-13T08:43:41.543Z,101423.03
2023-01-13T08:46:10.786Z,101424.72
2023-01-13T08:48:38.758Z,101393.03
2023-01-13T08:51:09.170Z,101427.44
2023-01-13T08:53:36.992Z,101449.19
2023-01-13T08:56:11.958Z,101439.56
2023-01-13T08:58:40.806Z,101378.97
2023-01-13T09:01:10.517Z,101457.28
2023-01-13T09:03:39.466Z,101456.78
2023-01-13T09:06:07.178Z,101461.69
2023-01-13T09:08:35.051Z,101443.34
2023-01-13T09:11:22.779Z,101430.75
2023-01-13T09:13:50.729Z,101448.44
2023-01-13T09:16:18.708Z,101487.53
2023-01-13T09:18:47.898Z,101456.38
2023-01-13T09:21:17.059Z,101396.69
2023-01-13T09:23:44.896Z,101459.50
2023-01-13T09:26:16.748Z,101473.19
2023-01-13T09:28:45.115Z,101453.44
2023-01-13T09:31:14.244Z,101419.22
2023-01-13T09:34:00.468Z,101482.91
2023-01-13T09:36:28.552Z,101464.72
2023-01-13T09:38:56.458Z,101471.50
2023-01-13T09:41:48.051Z,101453.44
2023-01-13T09:44:40.024Z,101431.31
2023-01-13T09:47:16.407Z,101490.28
2023-01-13T09:49:44.397Z,101501.88
2023-01-13T09:52:26.965Z,101505.25
2023-01-13T09:54:54.912Z,101511.75
2023-01-13T09:57:22.730Z,101499.81
2023-01-13T09:59:51.112Z,101484.88
2023-01-13T10:02:51.213Z,101463.38
2023-01-13T10:05:34.879Z,101475.50
2023-01-13T10:08:16.186Z,101449.78
2023-01-13T10:10:49.975Z,101498.06
2023-01-13T10:13:31.068Z,101506.47
2023-01-13T10:16:10.870Z,101504.31
2023-01-13T10:19:05.235Z,101472.34
2023-01-13T10:21:49.772Z,101506.53
2023-01-13T10:24:59.248Z,101507.06
2023-01-13T10:27:35.873Z,101489.69
2023-01-13T10:30:31.514Z,101489.94
2023-01-13T10:33:01.725Z,101469.47
2023-01-13T10:35:50.964Z,101480.44
2023-01-13T10:38:46.089Z,101480.09
2023-01-13T10:41:17.110Z,101478.78
2023-01-13T10:44:09.397Z,101464.28
2023-01-13T10:46:56.323Z,101464.03
2023-01-13T10:49:36.483Z,101436.50
2023-01-13T10:52:25.666Z,101446.47
2023-01-13T10:54:55.296Z,101433.75
2023-01-13T10:57:28.485Z,101449.56
2023-01-13T10:59:56.570Z,101440.88
2023-01-13T11:02:30.929Z,101452.91
2023-01-13T11:05:23.003Z,101446.34
2023-01-13T11:07:55.104Z,101383.03
2023-01-13T11:10:32.737Z,101458.34
2023-01-13T11:13:16.213Z,101440.91
2023-01-13T11:15:55.724Z,101446.94
2023-01-13T11:18:41.281Z,101452.66
2023-01-13T11:21:37.993Z,101404.66
2023-01-13T11:24:21.060Z,101443.69
2023-01-13T11:27:19.142Z,101373.84
2023-01-13T11:30:14.928Z,101440.91
2023-01-13T11:33:15.894Z,101343.09
2023-01-13T11:35:58.128Z,101439.88
2023-01-13T11:38:47.938Z,101412.06
2023-01-13T11:41:27.748Z,101445.84
2023-01-13T11:44:18.008Z,101387.72
2023-01-13T11:46:49.325Z,101433.78
2023-01-13T11:49:29.557Z,101438.75
2023-01-13T11:52:06.986Z,101420.66
2023-01-13T11:54:50.148Z,101448.84
2023-01-13T11:57:30.280Z,101448.03
2023-01-13T12:00:05.967Z,101439.88
2023-01-13T12:02:52.622Z,101439.91
2023-01-13T12:05:58.828Z,101430.41
2023-01-13T12:08:45.048Z,101434.19
2023-01-13T12:11:19.028Z,101429.84
2023-01-13T12:13:58.936Z,101423.06
2023-01-13T12:16:30.491Z,101420.84
2023-01-13T12:19:07.815Z,101427.38
2023-01-13T12:21:41.365Z,101425.19
2023-01-13T12:24:19.055Z,101372.22
2023-01-13T12:26:55.108Z,101418.06
2023-01-13T12:29:31.208Z,101331.00
2023-01-13T12:32:02.263Z,101416.44
2023-01-13T12:34:50.003Z,101391.44
2023-01-13T12:37:26.737Z,101398.00
2023-01-13T12:40:03.400Z,101390.41
2023-01-13T12:43:00.892Z,101384.97
2023-01-13T12:45:33.763Z,101382.00
2023-01-13T12:48:01.984Z,101371.38
2023-01-13T12:50:29.652Z,101367.84
2023-01-13T12:53:21.462Z,101350.97
2023-01-13T12:55:53.254Z,101335.66
2023-01-13T12:58:28.476Z,101260.16
2023-01-13T13:01:11.106Z,101331.31
2023-01-13T13:03:39.663Z,101363.78
2023-01-13T13:06:13.789Z,101361.06
2023-01-13T13:08:44.758Z,101377.41
2023-01-13T13:11:34.534Z,101381.47
2023-01-13T13:14:05.017Z,101369.28
2023-01-13T13:16:53.005Z,101367.09
2023-01-13T13:19:21.456Z,101374.97
2023-01-13T13:22:21.532Z,101384.50
2023-01-13T13:24:49.264Z,101392.94
2023-01-13T13:27:32.305Z,101375.28
2023-01-13T13:30:03.467Z,101329.44
2023-01-13T13:32:53.554Z,101322.66
2023-01-13T13:35:40.513Z,101372.56
2023-01-13T13:39:04.120Z,101360.59
2023-01-13T13:41:54.771Z,101323.50
2023-01-13T13:44:59.707Z,101369.03
2023-01-13T13:47:36.021Z,101377.44
2023-01-13T13:50:22.456Z,101371.19
2023-01-13T13:52:58.761Z,101327.00
2023-01-13T13:55:29.113Z,101372.81
2023-01-13T13:57:58.033Z,101295.13
2023-01-13T14:00:29.852Z,101346.13
2023-01-13T14:03:01.624Z,101364.69
2023-01-13T14:05:34.067Z,101352.44
2023-01-13T14:08:17.929Z,101342.66
2023-01-13T14:10:46.615Z,101321.69
2023-01-13T14:13:29.539Z,101355.50
2023-01-13T14:16:03.445Z,101331.75
2023-01-13T14:18:34.770Z,101359.59
2023-01-13T14:21:16.849Z,101333.94
2023-01-13T14:23:53.867Z,101355.22
2023-01-13T14:26:27.787Z,101361.19
2023-01-13T14:29:01.943Z,101330.66
2023-01-13T14:31:32.145Z,101346.78
2023-01-13T14:34:03.509Z,101354.34
2023-01-13T14:36:51.659Z,101316.66
2023-01-13T14:39:25.240Z,101348.03
2023-01-13T14:41:53.922Z,101389.13
2023-01-13T14:44:32.469Z,101390.75
2023-01-13T14:47:18.128Z,101390.72
2023-01-13T14:50:28.337Z,101376.56
2023-01-13T14:52:57.607Z,101406.75
2023-01-13T14:55:28.982Z,101404.84
2023-01-13T14:58:21.556Z,101418.44
2023-01-13T15:00:51.290Z,101355.41
2023-01-13T15:03:21.541Z,101410.50
2023-01-13T15:05:51.577Z,101289.69
2023-01-13T15:08:34.712Z,101407.81
2023-01-13T15:11:05.967Z,101413.25
2023-01-13T15:13:53.141Z,101391.47
2023-01-13T15:16:25.229Z,101386.03
2023-01-13T15:18:54.947Z,101402.34
2023-01-13T15:21:23.565Z,101410.28
2023-01-13T15:23:51.556Z,101392.53
2023-01-13T15:26:27.888Z,101433.66
2023-01-13T15:28:58.373Z,101437.75
2023-01-13T15:31:27.715Z,101438.81
2023-01-13T15:33:55.552Z,101419.75
2023-01-13T15:36:29.990Z,101397.47
2023-01-13T15:38:59.573Z,101411.94
2023-01-13T15:41:46.114Z,101407.59
2023-01-13T15:44:35.130Z,101412.78
2023-01-13T15:47:07.642Z,101396.91
2023-01-13T15:49:44.134Z,101413.84
2023-01-13T15:52:21.666Z,101415.75
2023-01-13T15:54:51.164Z,101408.41
2023-01-13T15:57:34.486Z,101375.44
2023-01-13T16:00:15.866Z,101362.59
2023-01-13T16:02:46.612Z,101407.59
2023-01-13T16:05:14.736Z,101381.66
2023-01-13T16:07:42.539Z,101342.84
2023-01-13T16:10:29.279Z,101438.28
2023-01-13T16:12:57.431Z,101418.94
2023-01-13T16:15:26.236Z,101434.25
2023-01-13T16:17:57.544Z,101324.81
2023-01-13T16:20:27.065Z,101439.13
2023-01-13T16:22:54.885Z,101405.56
2023-01-13T16:25:26.168Z,101335.22
2023-01-13T16:27:54.366Z,101394.94
2023-01-13T16:30:37.336Z,101425.22
2023-01-13T16:33:05.184Z,101402.91
2023-01-13T16:35:33.265Z,101379.72
2023-01-13T16:38:01.178Z,101451.41
2023-01-13T16:40:33.528Z,101459.53
2023-01-13T16:43:03.789Z,101401.13
2023-01-13T16:45:32.159Z,101333.47
2023-01-13T16:48:00.444Z,101421.09
2023-01-13T16:50:41.112Z,101452.47
2023-01-13T16:53:10.601Z,101457.91
2023-01-13T16:55:40.349Z,101458.97
2023-01-13T16:58:17.507Z,101445.03
2023-01-13T17:00:48.207Z,101409.28
2023-01-13T17:03:17.027Z,101455.72
2023-01-13T17:05:47.758Z,101456.50
2023-01-13T17:08:20.223Z,101459.19
2023-01-13T17:10:48.310Z,101474.47
2023-01-13T17:13:17.340Z,101436.28
2023-01-13T17:15:46.222Z,101461.66
2023-01-13T17:18:14.063Z,101471.50
2023-01-13T17:20:42.266Z,101483.97
2023-01-13T17:23:10.124Z,101429.13
2023-01-13T17:25:37.951Z,101498.69
2023-01-13T17:28:05.822Z,101459.34
2023-01-13T17:30:33.731Z,101507.34
2023-01-13T17:33:01.583Z,101458.47
2023-01-13T17:35:29.384Z,101483.59
2023-01-13T17:37:57.116Z,101508.06
2023-01-13T17:40:24.940Z,101485.72
2023-01-13T17:42:52.944Z,101506.53
2023-01-13T17:45:20.742Z,101523.16
2023-01-13T17:47:48.489Z,101522.34
2023-01-13T17:50:17.552Z,101518.78
2023-01-13T17:52:45.223Z,101505.63
2023-01-13T17:55:13.282Z,101512.78
2023-01-13T17:57:41.183Z,101507.91
2023-01-13T18:00:09.669Z,101543.38
2023-01-13T18:02:40.341Z,101481.91
2023-01-13T18:05:08.596Z,101546.56
2023-01-13T18:07:36.385Z,101484.81
2023-01-13T18:10:04.552Z,101518.94
2023-01-13T18:12:32.285Z,101519.16
2023-01-13T18:15:01.573Z,101572.69
2023-01-13T18:17:29.449Z,101561.25
2023-01-13T18:20:15.805Z,101491.38
2023-01-13T18:23:01.812Z,101539.94
2023-01-13T18:25:47.810Z,101567.75
2023-01-13T18:28:16.078Z,101513.06
2023-01-13T18:30:44.653Z,101564.94
2023-01-13T18:33:12.539Z,101536.53
2023-01-13T18:35:40.450Z,101573.31
2023-01-13T18:38:08.742Z,101604.97
2023-01-13T18:40:37.616Z,101571.34
2023-01-13T18:43:05.430Z,101601.38
2023-01-13T18:45:33.372Z,101573.47
2023-01-13T18:48:05.452Z,101579.50
2023-01-13T18:50:37.238Z,101553.00
2023-01-13T18:53:05.033Z,101548.50
2023-01-13T18:55:32.913Z,101434.50
2023-01-13T18:58:01.038Z,101596.28
2023-01-13T19:00:29.602Z,101584.19
2023-01-13T19:05:36.103Z,101605.00
2023-01-13T19:08:04.907Z,101618.34
2023-01-13T19:10:33.361Z,101586.41
2023-01-13T19:13:02.906Z,101529.28
2023-01-13T19:15:30.890Z,101588.22
2023-01-13T19:17:59.078Z,101560.94
2023-01-13T19:20:26.870Z,101572.97
2023-01-13T19:22:55.092Z,101599.22
2023-01-13T19:25:23.100Z,101528.88
2023-01-13T19:27:50.917Z,101599.66
2023-01-13T19:30:18.896Z,101578.06
2023-01-13T19:32:46.818Z,101587.91
2023-01-13T19:35:18.249Z,101563.09
2023-01-13T19:37:46.135Z,101615.63
2023-01-13T19:40:14.289Z,101621.88
2023-01-13T19:43:04.620Z,101629.94
2023-01-13T19:45:35.329Z,101617.88
2023-01-13T19:48:05.820Z,101589.22
2023-01-13T19:50:43.985Z,101631.00
2023-01-13T19:53:18.585Z,101540.91
2023-01-13T19:55:48.697Z,101630.78
2023-01-13T19:58:19.051Z,101604.16
2023-01-13T20:00:48.636Z,101600.84
2023-01-13T20:03:31.395Z,101608.81
2023-01-13T20:06:08.389Z,101589.97
2023-01-13T20:08:36.341Z,101634.91
2023-01-13T20:11:33.135Z,101591.66
2023-01-13T20:14:01.684Z,101454.22
2023-01-13T20:16:31.081Z,101615.19
2023-01-13T20:18:59.049Z,101592.16
2023-01-13T20:21:27.221Z,101592.16
2023-01-13T20:23:55.369Z,101621.91
2023-01-13T20:26:23.375Z,101592.69
2023-01-13T20:28:51.231Z,101636.25
2023-01-13T20:31:19.077Z,101604.06
2023-01-13T20:33:49.854Z,101522.91
2023-01-13T20:36:31.261Z,101616.63
2023-01-13T20:39:00.106Z,101627.03
2023-01-13T20:41:46.766Z,101602.19
2023-01-13T20:44:14.936Z,101594.00
2023-01-13T20:46:45.023Z,101589.16
2023-01-13T20:49:14.999Z,101578.00
2023-01-13T20:51:43.424Z,101520.25
2023-01-13T20:54:11.324Z,101554.44
2023-01-13T20:56:41.182Z,101597.03
2023-01-13T20:59:09.707Z,101602.41
2023-01-13T21:01:39.195Z,101602.38
2023-01-13T21:04:07.887Z,101593.06
2023-01-13T21:06:36.440Z,101597.72
2023-01-13T21:09:04.655Z,101594.94
2023-01-13T21:11:50.922Z,101570.09
2023-01-13T21:14:42.700Z,101603.16
2023-01-13T21:17:30.748Z,101617.28
2023-01-13T21:19:59.107Z,101595.88
2023-01-13T21:22:30.102Z,101623.53
2023-01-13T21:24:58.762Z,101587.69
2023-01-13T21:27:26.534Z,101614.69
2023-01-13T21:29:54.426Z,101627.81
2023-01-13T21:32:22.675Z,101591.72
2023-01-13T21:34:50.667Z,101628.28
2023-01-13T21:37:18.816Z,101612.16
2023-01-13T21:39:46.554Z,101585.50
2023-01-13T21:42:33.839Z,101631.28
2023-01-13T21:45:21.104Z,101633.22
2023-01-13T21:47:49.489Z,101623.63
2023-01-13T21:50:23.401Z,101606.97
2023-01-13T21:52:55.444Z,101643.56
2023-01-13T21:55:25.539Z,101633.69
2023-01-13T21:57:54.593Z,101648.50
2023-01-13T22:00:26.978Z,101646.91
2023-01-13T22:02:55.159Z,101645.53
2023-01-13T22:05:24.633Z,101617.38
2023-01-13T22:07:53.088Z,101654.44
2023-01-13T22:10:23.164Z,101671.56
2023-01-13T22:12:57.757Z,101638.06
2023-01-13T22:15:28.427Z,101588.22
2023-01-13T22:17:57.307Z,101653.34
2023-01-13T22:20:25.454Z,101637.53
2023-01-13T22:22:53.355Z,101614.50
2023-01-13T22:25:21.947Z,101641.84
2023-01-13T22:27:49.761Z,101650.56
2023-01-13T22:30:22.064Z,101662.59
2023-01-13T22:32:50.888Z,101665.59
2023-01-13T22:35:19.173Z,101591.69
2023-01-13T22:37:46.871Z,101561.34
2023-01-13T22:40:14.800Z,101641.09
2023-01-13T22:42:43.164Z,101654.69
2023-01-13T22:45:12.993Z,101662.97
2023-01-13T22:47:40.803Z,101597.78
2023-01-13T22:50:09.796Z,101663.69
2023-01-13T22:52:37.563Z,101662.50
2023-01-13T22:55:07.093Z,101672.06
2023-01-13T22:57:46.982Z,101665.00
2023-01-13T23:00:19.360Z,101680.69
2023-01-13T23:02:47.282Z,101522.34
2023-01-13T23:05:15.213Z,101572.34
2023-01-13T23:07:43.068Z,101679.53
2023-01-13T23:10:11.585Z,101606.56
2023-01-13T23:12:39.421Z,101614.78
2023-01-13T23:15:07.666Z,101644.53
2023-01-13T23:17:35.392Z,101646.28
2023-01-13T23:20:03.701Z,101623.38
2023-01-13T23:22:31.494Z,101632.06
2023-01-13T23:24:59.201Z,101589.31
2023-01-13T23:27:27.025Z,101599.66
2023-01-13T23:29:56.048Z,101656.06
2023-01-13T23:32:23.882Z,101692.16
2023-01-13T23:34:52.583Z,101685.91
2023-01-13T23:37:20.329Z,101650.56
2023-01-13T23:39:48.027Z,101668.63
2023-01-13T23:42:16.205Z,101690.00
2023-01-13T23:44:46.538Z,101691.34
2023-01-13T23:47:14.337Z,101625.44
2023-01-13T23:49:43.061Z,101675.06
2023-01-13T23:52:11.105Z,101686.00
2023-01-13T23:54:38.816Z,101678.69
2023-01-13T23:57:06.635Z,101633.59
2023-01-13T23:59:34.631Z,101644.28
